Time;durP1;ratioP1;P1;durP2;ratioP2;P2;SDS_P1;SDS_P2;PMS_P1;PMS_P2;Temp;Humidity;BMP_temperature;BMP_pressure;BME280_temperature;BME280_humidity;BME280_pressure;Samples;Min_cycle;Max_cycle;Signal;HPM_P1;HPM_P2
2023/09/09 00:02:12;;;;;;;9.57;6.82;;;24.30;99.90;;;;;;4976385;28;20029;-92
2023/09/09 00:04:38;;;;;;;9.25;6.80;;;24.30;99.90;;;;;;4992034;28;20030;-90
2023/09/09 00:07:04;;;;;;;11.27;6.60;;;24.10;99.90;;;;;;4992131;28;20046;-91
2023/09/09 00:09:30;;;;;;;9.13;7.00;;;24.30;99.90;;;;;;4992857;28;20030;-91
2023/09/09 00:11:55;;;;;;;9.27;6.22;;;24.20;99.90;;;;;;4991964;28;20034;-91
2023/09/09 00:14:21;;;;;;;8.00;6.88;;;24.40;99.90;;;;;;4991197;28;20022;-91
2023/09/09 00:16:47;;;;;;;13.13;7.25;;;24.20;99.90;;;;;;4991944;28;20121;-90
2023/09/09 00:19:13;;;;;;;11.02;6.40;;;24.20;99.90;;;;;;4991855;28;20398;-90
2023/09/09 00:21:38;;;;;;;10.45;7.05;;;24.20;99.90;;;;;;4991257;28;20022;-91
2023/09/09 00:24:05;;;;;;;14.57;7.05;;;24.20;99.90;;;;;;4992515;28;20068;-91
2023/09/09 00:26:31;;;;;;;8.55;6.78;;;24.00;99.90;;;;;;4991996;28;20069;-92
2023/09/09 00:28:57;;;;;;;8.18;6.93;;;24.00;99.90;;;;;;4991767;28;20081;-90
2023/09/09 00:31:23;;;;;;;9.35;7.22;;;24.00;99.90;;;;;;4991675;28;20026;-92
2023/09/09 00:33:49;;;;;;;9.02;7.10;;;24.10;99.90;;;;;;4991469;28;20080;-90
2023/09/09 00:36:15;;;;;;;9.05;6.88;;;24.00;99.90;;;;;;4991549;28;20037;-91
2023/09/09 00:38:40;;;;;;;9.77;7.18;;;23.90;99.90;;;;;;4991692;28;20030;-90
2023/09/09 00:41:20;;;;;;;7.38;6.63;;;23.80;99.90;;;;;;4991581;28;20505;-91
2023/09/09 00:43:48;;;;;;;11.52;6.95;;;23.90;99.90;;;;;;4991517;28;20545;-92
2023/09/09 00:46:15;;;;;;;;;;;23.80;99.90;;;;;;4992015;28;20022;-90
2023/09/09 00:48:41;;;;;;;9.05;6.75;;;23.70;99.90;;;;;;4974257;28;20338;-92
2023/09/09 00:51:11;;;;;;;8.52;6.93;;;23.70;99.90;;;;;;4973030;28;20487;-89
2023/09/09 00:53:37;;;;;;;8.80;7.22;;;23.50;99.90;;;;;;4988096;28;20034;-90
2023/09/09 00:56:04;;;;;;;8.63;6.97;;;23.50;99.90;;;;;;4988136;28;20039;-92
2023/09/09 00:58:31;;;;;;;9.35;7.65;;;23.50;99.90;;;;;;4987888;28;20026;-91
2023/09/09 01:00:57;;;;;;;14.63;7.50;;;23.50;99.90;;;;;;4987939;28;20836;-90
2023/09/09 01:03:23;;;;;;;11.15;7.70;;;23.40;99.90;;;;;;4977010;28;20117;-91
2023/09/09 01:05:49;;;;;;;9.60;7.97;;;23.50;99.90;;;;;;4972551;28;20055;-90
2023/09/09 01:08:26;;;;;;;11.77;7.72;;;23.50;99.90;;;;;;4971779;28;20026;-90
2023/09/09 01:10:52;;;;;;;11.23;8.68;;;23.50;99.90;;;;;;4971575;28;20035;-91
2023/09/09 01:13:18;;;;;;;10.32;8.57;;;23.50;99.90;;;;;;4971400;28;20109;-90
2023/09/09 01:15:43;;;;;;;11.85;8.38;;;23.40;99.90;;;;;;4971217;28;20125;-90
2023/09/09 01:18:09;;;;;;;14.68;8.05;;;23.40;99.90;;;;;;4978748;28;20070;-91
2023/09/09 01:20:39;;;;;;;13.68;8.57;;;23.40;99.90;;;;;;4972206;28;20019;-90
2023/09/09 01:23:05;;;;;;;10.75;8.55;;;23.50;99.90;;;;;;4973244;28;20019;-91
2023/09/09 01:25:30;;;;;;;11.43;8.55;;;23.50;99.90;;;;;;4970869;28;20027;-90
2023/09/09 01:27:56;;;;;;;9.85;8.05;;;23.50;99.90;;;;;;4970617;28;20114;-91
2023/09/09 01:30:22;;;;;;;10.50;7.80;;;23.50;99.90;;;;;;4971207;28;20117;-90
2023/09/09 01:32:50;;;;;;;9.45;7.80;;;23.50;99.90;;;;;;4970887;28;20178;-93
2023/09/09 01:35:15;;;;;;;10.75;8.13;;;24.60;99.90;;;;;;4970833;28;20070;-90
2023/09/09 01:37:41;;;;;;;9.85;8.48;;;23.50;99.90;;;;;;4972197;28;20089;-90
2023/09/09 01:40:12;;;;;;;12.40;8.18;;;23.50;99.90;;;;;;4971635;28;20390;-91
2023/09/09 01:42:38;;;;;;;10.05;8.30;;;23.50;99.90;;;;;;4981592;28;20502;-90
2023/09/09 01:45:04;;;;;;;11.02;8.23;;;23.40;99.90;;;;;;4972717;28;20019;-90
2023/09/09 01:47:30;;;;;;;9.60;8.60;;;23.50;99.90;;;;;;4970760;28;20496;-91
2023/09/09 01:49:56;;;;;;;12.38;8.88;;;23.20;99.90;;;;;;4987087;28;20098;-91
2023/09/09 01:52:21;;;;;;;13.35;8.70;;;23.20;99.90;;;;;;4970979;28;20383;-91
2023/09/09 01:54:47;;;;;;;9.82;8.27;;;23.10;99.90;;;;;;4970807;28;20518;-91
2023/09/09 01:57:14;;;;;;;9.70;8.02;;;23.10;99.90;;;;;;4971565;28;20023;-89
2023/09/09 01:59:40;;;;;;;11.37;8.67;;;23.10;99.90;;;;;;4970284;28;20037;-89
2023/09/09 02:02:06;;;;;;;11.13;8.85;;;23.10;99.90;;;;;;4972602;28;20102;-90
2023/09/09 02:04:31;;;;;;;12.77;9.20;;;23.10;99.90;;;;;;4970835;28;20050;-91
2023/09/09 02:06:57;;;;;;;13.52;8.55;;;23.10;99.90;;;;;;4970511;28;20035;-90
2023/09/09 02:09:23;;;;;;;11.07;8.85;;;23.10;99.90;;;;;;4970791;28;20019;-90
2023/09/09 02:11:48;;;;;;;15.75;8.90;;;23.10;99.90;;;;;;4970243;28;20038;-90
2023/09/09 02:14:14;;;;;;;9.57;8.50;;;23.10;99.90;;;;;;4970738;28;20030;-89
2023/09/09 02:16:42;;;;;;;11.57;9.60;;;23.30;99.90;;;;;;4971215;28;20037;-90
2023/09/09 02:19:08;;;;;;;12.15;9.00;;;23.10;99.90;;;;;;4971286;28;20031;-91
2023/09/09 02:21:33;;;;;;;10.68;8.77;;;23.10;99.90;;;;;;4970372;28;20027;-90
2023/09/09 02:23:59;;;;;;;11.07;8.73;;;23.10;99.90;;;;;;4970480;28;20031;-89
2023/09/09 02:26:24;;;;;;;10.85;9.30;;;23.10;99.90;;;;;;4978308;28;20030;-90
2023/09/09 02:28:50;;;;;;;13.18;8.95;;;23.10;99.90;;;;;;4990100;28;20112;-89
2023/09/09 02:31:16;;;;;;;11.90;9.23;;;23.20;99.90;;;;;;4989868;28;20390;-91
2023/09/09 02:33:41;;;;;;;11.88;9.30;;;23.00;99.90;;;;;;4989716;28;20196;-90
2023/09/09 02:36:07;;;;;;;9.52;8.52;;;23.00;99.90;;;;;;4980640;28;20049;-90
2023/09/09 02:38:34;;;;;;;11.93;9.38;;;23.00;99.90;;;;;;4987455;28;20493;-90
2023/09/09 02:40:59;;;;;;;10.38;8.93;;;23.00;99.90;;;;;;4975216;28;20479;-91
2023/09/09 02:43:25;;;;;;;12.02;10.23;;;22.90;99.90;;;;;;4973868;28;20082;-90
2023/09/09 02:45:51;;;;;;;12.30;9.52;;;23.80;99.90;;;;;;4973708;28;20086;-91
2023/09/09 02:48:16;;;;;;;12.70;10.18;;;22.70;99.90;;;;;;4973970;28;20487;-91
2023/09/09 02:50:42;;;;;;;13.75;9.60;;;22.70;99.90;;;;;;4974303;28;20506;-90
2023/09/09 02:53:08;;;;;;;13.70;10.18;;;22.70;99.90;;;;;;4985041;28;20035;-89
2023/09/09 02:55:33;;;;;;;14.80;10.13;;;22.70;99.90;;;;;;4994044;28;20092;-90
2023/09/09 02:57:59;;;;;;;13.32;10.30;;;22.70;99.90;;;;;;4993128;28;20027;-90
2023/09/09 03:00:25;;;;;;;14.63;9.90;;;22.70;99.90;;;;;;4993109;28;20029;-92
2023/09/09 03:02:50;;;;;;;14.02;10.35;;;22.60;99.90;;;;;;4993097;28;20023;-91
2023/09/09 03:05:16;;;;;;;11.50;10.35;;;22.60;99.90;;;;;;4992959;28;20018;-91
2023/09/09 03:07:44;;;;;;;13.98;10.60;;;22.50;99.90;;;;;;4991821;28;20031;-90
2023/09/09 03:10:09;;;;;;;12.13;10.00;;;22.50;99.90;;;;;;4993500;28;20026;-92
2023/09/09 03:12:35;;;;;;;13.05;10.10;;;22.50;99.90;;;;;;4988665;28;20042;-90
2023/09/09 03:15:05;;;;;;;15.05;10.23;;;22.50;99.90;;;;;;4974350;28;20035;-91
2023/09/09 03:17:31;;;;;;;11.95;9.15;;;22.50;99.90;;;;;;4973445;28;20038;-90
2023/09/09 03:19:56;;;;;;;17.17;10.98;;;22.70;99.90;;;;;;4973240;28;20035;-90
2023/09/09 03:22:22;;;;;;;11.82;9.15;;;22.40;99.90;;;;;;4974229;28;20031;-92
2023/09/09 03:24:48;;;;;;;11.07;9.70;;;22.60;99.90;;;;;;4973509;28;20077;-92
2023/09/09 03:27:14;;;;;;;11.52;8.90;;;22.50;99.90;;;;;;4999445;28;20037;-89
2023/09/09 03:29:39;;;;;;;9.65;8.57;;;22.40;99.90;;;;;;4993407;28;20019;-90
2023/09/09 03:32:05;;;;;;;10.63;8.60;;;22.40;99.90;;;;;;4992089;28;20030;-90
2023/09/09 03:34:31;;;;;;;14.90;9.93;;;22.50;99.90;;;;;;4991974;28;20089;-92
2023/09/09 03:36:56;;;;;;;14.30;10.18;;;22.40;99.90;;;;;;4992194;28;20030;-91
2023/09/09 03:39:23;;;;;;;13.60;9.55;;;22.40;99.90;;;;;;4993020;28;20024;-90
2023/09/09 03:41:48;;;;;;;10.15;8.93;;;22.40;99.90;;;;;;4992439;28;20058;-90
2023/09/09 03:44:14;;;;;;;14.10;9.50;;;22.40;99.90;;;;;;4991469;28;20058;-90
2023/09/09 03:46:40;;;;;;;13.02;9.85;;;22.40;99.90;;;;;;4991254;28;20022;-89
2023/09/09 03:49:05;;;;;;;9.95;8.75;;;22.30;99.90;;;;;;4988816;28;20109;-89
2023/09/09 03:51:31;;;;;;;10.38;9.07;;;22.40;99.90;;;;;;4990177;28;20076;-89
2023/09/09 03:53:57;;;;;;;11.18;8.82;;;22.30;99.90;;;;;;4993102;28;20510;-90
2023/09/09 03:56:22;;;;;;;10.23;8.85;;;22.20;99.90;;;;;;4992087;28;20102;-91
2023/09/09 03:58:48;;;;;;;14.60;9.80;;;22.20;99.90;;;;;;4991445;28;20028;-90
2023/09/09 04:01:14;;;;;;;10.77;8.85;;;22.20;99.90;;;;;;4992136;28;20493;-89
2023/09/09 04:03:40;;;;;;;12.15;8.48;;;22.20;99.90;;;;;;4990804;28;20037;-90
2023/09/09 04:06:07;;;;;;;9.15;7.82;;;22.10;99.90;;;;;;4990756;28;20498;-90
2023/09/09 04:08:35;;;;;;;10.63;8.20;;;22.10;99.90;;;;;;4990984;28;20023;-89
2023/09/09 04:11:00;;;;;;;12.30;8.18;;;22.10;99.90;;;;;;4990822;28;20438;-88
2023/09/09 04:13:26;;;;;;;13.27;8.40;;;22.00;99.90;;;;;;4990798;28;20487;-90
2023/09/09 04:15:53;;;;;;;11.80;8.00;;;22.00;99.90;;;;;;4990413;28;20034;-89
2023/09/09 04:18:19;;;;;;;8.43;7.50;;;22.00;99.90;;;;;;4990007;28;20032;-90
2023/09/09 04:20:45;;;;;;;9.27;7.80;;;21.90;99.90;;;;;;4990827;28;20109;-90
2023/09/09 04:23:10;;;;;;;9.70;7.55;;;22.00;99.90;;;;;;4991789;28;20026;-89
2023/09/09 04:25:36;;;;;;;11.35;6.72;;;21.90;99.90;;;;;;5005397;28;20035;-90
2023/09/09 04:28:02;;;;;;;8.18;7.05;;;22.00;99.90;;;;;;4990430;28;20057;-89
2023/09/09 04:30:28;;;;;;;8.48;7.10;;;21.90;99.90;;;;;;4991482;28;20026;-89
2023/09/09 04:32:54;;;;;;;7.65;6.57;;;21.80;99.90;;;;;;4991717;28;20034;-91
2023/09/09 04:35:19;;;;;;;12.65;7.15;;;21.80;99.90;;;;;;4990274;28;20041;-91
2023/09/09 04:37:45;;;;;;;9.57;6.95;;;21.80;99.90;;;;;;4992293;28;20026;-89
2023/09/09 04:40:11;;;;;;;9.70;6.57;;;21.80;99.90;;;;;;4991138;28;20027;-90
2023/09/09 04:42:37;;;;;;;10.63;7.03;;;21.70;99.90;;;;;;4990271;28;20446;-88
2023/09/09 04:45:04;;;;;;;8.13;6.50;;;21.80;99.90;;;;;;4970542;28;20034;-90
2023/09/09 04:47:30;;;;;;;10.15;6.93;;;21.80;99.90;;;;;;4986150;28;20494;-90
2023/09/09 04:49:57;;;;;;;12.50;6.75;;;21.80;99.90;;;;;;4990213;28;20034;-89
2023/09/09 04:52:23;;;;;;;7.72;6.20;;;21.80;99.90;;;;;;4990073;28;20022;-89
2023/09/09 04:54:49;;;;;;;8.00;6.13;;;21.80;99.90;;;;;;4991634;28;20380;-89
2023/09/09 04:57:15;;;;;;;7.85;5.90;;;21.80;99.90;;;;;;4990734;28;20026;-90
2023/09/09 04:59:42;;;;;;;10.27;6.13;;;21.80;99.90;;;;;;4984374;28;20398;-90
2023/09/09 05:02:07;;;;;;;8.55;6.50;;;21.90;99.90;;;;;;4970224;28;20031;-88
2023/09/09 05:04:33;;;;;;;15.60;6.00;;;21.80;99.90;;;;;;4970252;28;20038;-89
2023/09/09 05:06:58;;;;;;;6.68;5.57;;;21.90;99.90;;;;;;4978251;28;20030;-92
2023/09/09 05:09:24;;;;;;;8.57;6.18;;;21.80;99.90;;;;;;4988041;28;20426;-90
2023/09/09 05:11:50;;;;;;;9.38;6.00;;;21.80;99.90;;;;;;4990818;28;20066;-90
2023/09/09 05:14:16;;;;;;;8.13;5.95;;;21.80;99.90;;;;;;4989142;28;20034;-91
2023/09/09 05:16:42;;;;;;;9.65;6.15;;;21.50;99.90;;;;;;4975070;28;20045;-91
2023/09/09 05:19:07;;;;;;;8.20;6.43;;;21.60;99.90;;;;;;4974128;28;20062;-91
2023/09/09 05:21:33;;;;;;;9.18;6.30;;;21.70;99.90;;;;;;4988799;28;20014;-89
2023/09/09 05:23:58;;;;;;;11.65;6.50;;;21.70;99.90;;;;;;4990407;28;20126;-91
2023/09/09 05:26:24;;;;;;;9.27;6.53;;;21.70;99.90;;;;;;4991285;28;20494;-90
2023/09/09 05:28:50;;;;;;;10.30;6.35;;;21.60;99.90;;;;;;4990303;28;20092;-90
2023/09/09 05:31:16;;;;;;;7.28;6.03;;;21.60;99.90;;;;;;5006983;28;20026;-92
2023/09/09 05:33:42;;;;;;;7.13;5.43;;;21.60;99.90;;;;;;4980303;28;20085;-92
2023/09/09 05:36:07;;;;;;;7.38;5.50;;;21.60;99.90;;;;;;5010675;28;20034;-90
2023/09/09 05:38:35;;;;;;;7.68;5.78;;;21.60;99.90;;;;;;5010658;28;20026;-92
2023/09/09 05:41:00;;;;;;;6.68;5.75;;;21.50;99.90;;;;;;5009883;28;20025;-92
2023/09/09 05:43:26;;;;;;;9.07;5.68;;;21.50;99.90;;;;;;5010272;28;20033;-91
2023/09/09 05:45:56;;;;;;;6.45;5.80;;;21.80;99.90;;;;;;5001001;28;20069;-90
2023/09/09 05:48:21;;;;;;;8.68;6.18;;;21.40;99.90;;;;;;4988142;28;20027;-91
2023/09/09 05:50:47;;;;;;;6.95;5.75;;;21.40;99.90;;;;;;4990263;28;20113;-94
2023/09/09 05:53:12;;;;;;;15.07;6.47;;;21.30;99.90;;;;;;4990448;28;20120;-91
2023/09/09 05:55:38;;;;;;;8.57;6.50;;;21.40;99.90;;;;;;4977023;28;20116;-88
2023/09/09 05:58:04;;;;;;;7.38;6.10;;;21.30;99.90;;;;;;4980480;28;20114;-88
2023/09/09 06:00:29;;;;;;;8.90;6.07;;;21.30;99.90;;;;;;4990069;28;20027;-89
2023/09/09 06:02:55;;;;;;;8.73;6.15;;;21.30;99.90;;;;;;4998887;28;20022;-90
2023/09/09 06:05:21;;;;;;;11.73;6.68;;;21.30;99.90;;;;;;4987398;28;20418;-92
2023/09/09 06:07:47;;;;;;;7.95;6.13;;;21.40;99.90;;;;;;4992099;28;20022;-92
2023/09/09 06:10:13;;;;;;;12.70;6.30;;;21.60;99.90;;;;;;4980740;28;20034;-93
2023/09/09 06:12:38;;;;;;;6.72;5.93;;;21.70;99.90;;;;;;5008352;28;20049;-91
2023/09/09 06:15:04;;;;;;;7.93;6.00;;;21.40;99.90;;;;;;4999699;28;20038;-91
2023/09/09 06:17:30;;;;;;;8.57;6.60;;;21.40;99.90;;;;;;4996611;28;20031;-92
2023/09/09 06:19:56;;;;;;;8.80;6.55;;;21.50;99.90;;;;;;5005115;28;20399;-93
2023/09/09 06:22:22;;;;;;;9.63;6.60;;;21.50;99.90;;;;;;5000251;28;20031;-93
2023/09/09 06:24:48;;;;;;;11.93;6.88;;;21.60;99.90;;;;;;4988626;28;20030;-93
2023/09/09 06:27:14;;;;;;;10.35;6.32;;;22.00;99.90;;;;;;4999572;28;20034;-92
2023/09/09 06:29:39;;;;;;;11.38;6.05;;;21.80;99.90;;;;;;5002109;28;20018;-92
2023/09/09 06:32:06;;;;;;;10.70;6.50;;;21.70;99.90;;;;;;4984420;28;20142;-92
2023/09/09 06:34:32;;;;;;;9.13;6.63;;;21.70;99.90;;;;;;5001521;28;20121;-91
2023/09/09 06:36:57;;;;;;;9.18;6.25;;;22.00;99.90;;;;;;5004918;28;20058;-93
2023/09/09 06:39:23;;;;;;;10.27;6.55;;;21.80;99.90;;;;;;5013661;28;20029;-94
2023/09/09 06:41:50;;;;;;;10.00;6.40;;;22.10;99.90;;;;;;5020945;28;20385;-92
2023/09/09 06:44:15;;;;;;;12.38;6.20;;;22.10;99.90;;;;;;5018832;28;20030;-91
2023/09/09 06:46:41;;;;;;;11.45;6.35;;;21.90;99.90;;;;;;5003560;28;20050;-92
2023/09/09 06:49:08;;;;;;;10.40;6.45;;;22.00;99.90;;;;;;5002476;28;20030;-94
2023/09/09 06:51:34;;;;;;;10.80;6.47;;;22.40;99.90;;;;;;5010618;28;20057;-92
2023/09/09 06:53:59;;;;;;;11.48;5.90;;;22.10;99.90;;;;;;4988852;28;20031;-91
2023/09/09 06:56:25;;;;;;;13.98;6.13;;;22.20;99.90;;;;;;4983657;28;20066;-93
2023/09/09 06:58:51;;;;;;;11.43;5.85;;;22.30;99.90;;;;;;4983067;28;20050;-92
2023/09/09 07:01:16;;;;;;;12.43;6.35;;;22.50;99.90;;;;;;4979987;28;20443;-90
2023/09/09 07:03:42;;;;;;;9.82;5.70;;;22.50;99.90;;;;;;4983831;28;20391;-90
2023/09/09 07:06:07;;;;;;;11.15;6.22;;;22.50;99.90;;;;;;4993364;28;20034;-92
2023/09/09 07:08:33;;;;;;;12.10;6.03;;;22.60;99.90;;;;;;4993410;28;20390;-92
2023/09/09 07:10:58;;;;;;;11.80;6.20;;;22.60;99.90;;;;;;4993430;28;20030;-93
2023/09/09 07:13:24;;;;;;;17.98;5.85;;;21.60;99.90;;;;;;4994141;28;20440;-88
2023/09/09 07:15:54;;;;;;;11.68;5.28;;;22.70;99.90;;;;;;4993666;28;20039;-90
2023/09/09 07:18:21;;;;;;;11.68;5.88;;;22.80;99.90;;;;;;4995248;28;20014;-89
2023/09/09 07:20:46;;;;;;;17.73;5.90;;;22.80;99.90;;;;;;4987996;28;20039;-88
2023/09/09 07:23:14;;;;;;;9.57;5.47;;;22.80;99.90;;;;;;4975356;28;20538;-92
2023/09/09 07:25:42;;;;;;;9.23;5.75;;;22.90;99.90;;;;;;4984969;28;20038;-87
2023/09/09 07:28:08;;;;;;;14.02;5.78;;;23.00;99.90;;;;;;5010141;28;20034;-88
2023/09/09 07:30:34;;;;;;;12.68;5.40;;;23.10;99.90;;;;;;5007085;28;20022;-91
2023/09/09 07:33:00;;;;;;;10.57;5.55;;;23.20;99.90;;;;;;4984051;28;20109;-87
2023/09/09 07:35:25;;;;;;;9.95;5.88;;;23.20;99.90;;;;;;5001433;28;20042;-88
2023/09/09 07:37:51;;;;;;;12.18;5.70;;;23.30;99.90;;;;;;4988192;28;20078;-83
2023/09/09 07:40:17;;;;;;;10.65;5.40;;;23.40;99.90;;;;;;4980785;28;20034;-82
2023/09/09 07:42:43;;;;;;;12.02;6.20;;;23.50;99.90;;;;;;4975657;28;20031;-84
2023/09/09 07:45:09;;;;;;;10.75;5.10;;;23.70;99.90;;;;;;4972290;28;20435;-84
2023/09/09 07:47:34;;;;;;;12.43;5.82;;;23.80;99.90;;;;;;4972349;28;20082;-86
2023/09/09 07:50:00;;;;;;;9.43;5.30;;;23.80;99.90;;;;;;4972049;28;20035;-84
2023/09/09 07:52:26;;;;;;;8.48;5.13;;;23.80;99.90;;;;;;4972717;28;20038;-86
2023/09/09 07:54:52;;;;;;;9.25;5.03;;;23.80;99.90;;;;;;4972697;28;20022;-85
2023/09/09 07:57:17;;;;;;;12.65;5.20;;;24.00;99.90;;;;;;4972041;28;20542;-84
2023/09/09 07:59:43;;;;;;;12.52;5.32;;;24.10;99.90;;;;;;4972135;28;20118;-86
2023/09/09 08:02:09;;;;;;;11.07;4.78;;;24.20;99.90;;;;;;4972070;28;20026;-84
2023/09/09 08:04:34;;;;;;;11.98;5.57;;;24.40;99.90;;;;;;4971686;28;20053;-87
2023/09/09 08:07:00;;;;;;;10.45;4.80;;;24.50;99.90;;;;;;4971436;28;20427;-86
2023/09/09 08:09:26;;;;;;;14.07;5.20;;;24.60;99.90;;;;;;4972659;28;20037;-84
2023/09/09 08:11:52;;;;;;;7.85;4.68;;;24.70;99.90;;;;;;4970750;28;20363;-87
2023/09/09 08:14:18;;;;;;;7.47;5.25;;;24.80;99.90;;;;;;4971644;28;20558;-84
2023/09/09 08:16:44;;;;;;;9.23;5.10;;;25.00;99.90;;;;;;4974001;28;20383;-84
2023/09/09 08:19:09;;;;;;;15.30;5.72;;;25.00;99.90;;;;;;4991277;28;20466;-84
2023/09/09 08:21:35;;;;;;;11.65;5.15;;;25.00;99.90;;;;;;4991046;28;20120;-85
2023/09/09 08:24:01;;;;;;;8.43;4.90;;;25.10;99.90;;;;;;4991136;28;20026;-87
2023/09/09 08:26:28;;;;;;;15.15;5.40;;;25.20;99.90;;;;;;4989645;28;20117;-84
2023/09/09 08:28:54;;;;;;;11.27;4.72;;;25.30;99.90;;;;;;4975080;28;20109;-85
2023/09/09 08:31:20;;;;;;;11.52;5.47;;;25.40;99.90;;;;;;4971548;28;20018;-84
2023/09/09 08:33:46;;;;;;;11.23;5.00;;;25.50;99.90;;;;;;4970670;28;20489;-85
2023/09/09 08:36:12;;;;;;;17.35;5.00;;;25.60;99.90;;;;;;4971350;28;20027;-85
2023/09/09 08:38:38;;;;;;;7.22;5.07;;;25.60;99.90;;;;;;4971403;28;20023;-85
2023/09/09 08:41:14;;;;;;;6.82;4.38;;;25.70;99.90;;;;;;4973900;28;20394;-85
2023/09/09 08:43:59;;;;;;;11.48;5.38;;;25.80;99.90;;;;;;4989775;28;20037;-85
2023/09/09 08:46:25;;;;;;;10.65;5.47;;;25.90;99.90;;;;;;4991136;28;20082;-84
2023/09/09 08:48:51;;;;;;;10.85;4.90;;;26.00;99.90;;;;;;4990584;28;20057;-84
2023/09/09 08:51:21;;;;;;;13.95;4.93;;;26.00;99.90;;;;;;4990532;28;20026;-86
2023/09/09 08:53:50;;;;;;;8.35;5.00;;;26.10;99.90;;;;;;4990553;28;20025;-85
2023/09/09 08:56:17;;;;;;;14.30;5.10;;;26.20;99.90;;;;;;4990481;28;20034;-84
2023/09/09 08:58:43;;;;;;;8.40;4.72;;;26.30;99.90;;;;;;4989536;28;20026;-86
2023/09/09 09:01:11;;;;;;;9.77;4.60;;;26.40;99.90;;;;;;4989117;28;20057;-83
2023/09/09 09:03:37;;;;;;;15.23;4.93;;;26.40;99.90;;;;;;4987894;28;20513;-85
2023/09/09 09:06:04;;;;;;;7.85;4.90;;;26.40;99.90;;;;;;4981750;28;20035;-84
2023/09/09 09:08:31;;;;;;;8.82;4.70;;;26.50;99.90;;;;;;4971322;28;20019;-82
2023/09/09 09:10:58;;;;;;;11.65;4.65;;;26.60;99.90;;;;;;4971566;28;20085;-84
2023/09/09 09:13:24;;;;;;;10.25;4.65;;;26.80;99.90;;;;;;4970581;28;20406;-83
2023/09/09 09:15:50;;;;;;;20.23;5.22;;;26.90;99.90;;;;;;4971073;28;20268;-84
2023/09/09 09:18:15;;;;;;;8.55;4.65;;;26.90;99.90;;;;;;4990103;28;20382;-86
2023/09/09 09:20:41;;;;;;;11.70;4.78;;;26.90;99.90;;;;;;4988674;28;20034;-85
2023/09/09 09:23:11;;;;;;;11.82;4.82;;;27.00;99.90;;;;;;4989640;28;20475;-86
2023/09/09 09:25:41;;;;;;;8.65;4.95;;;27.10;99.90;;;;;;4984793;28;20041;-84
2023/09/09 09:28:07;;;;;;;16.77;4.72;;;27.10;99.90;;;;;;4985431;28;20117;-85
2023/09/09 09:30:34;;;;;;;12.70;4.97;;;27.10;99.90;;;;;;4985152;28;20156;-85
2023/09/09 09:33:00;;;;;;;12.07;4.90;;;27.20;99.90;;;;;;4989591;28;20085;-84
2023/09/09 09:35:30;;;;;;;16.55;5.22;;;27.20;99.90;;;;;;4989815;28;20038;-86
2023/09/09 09:38:00;;;;;;;13.60;5.03;;;27.30;99.90;;;;;;4984514;28;20402;-86
2023/09/09 09:40:27;;;;;;;19.95;5.13;;;27.30;99.90;;;;;;5003963;28;20026;-84
2023/09/09 09:42:53;;;;;;;12.77;5.28;;;27.40;99.90;;;;;;5008351;28;20535;-84
2023/09/09 09:45:24;;;;;;;10.98;4.70;;;27.50;99.90;;;;;;4988532;28;20033;-84
2023/09/09 09:47:50;;;;;;;13.00;4.72;;;27.50;99.90;;;;;;4969791;28;20113;-85
2023/09/09 09:50:28;;;;;;;11.13;4.85;;;27.60;99.90;;;;;;4970239;28;20472;-85
2023/09/09 09:53:03;;;;;;;12.30;4.45;;;27.60;99.90;;;;;;4969841;28;20019;-84
2023/09/09 09:55:30;;;;;;;8.63;4.72;;;27.60;99.90;;;;;;4971024;28;20095;-84
2023/09/09 09:57:58;;;;;;;8.50;4.60;;;27.60;99.90;;;;;;4970237;28;20062;-84
2023/09/09 10:00:25;;;;;;;9.82;4.75;;;27.70;99.90;;;;;;4970979;28;20031;-84
2023/09/09 10:02:59;;;;;;;10.77;4.50;;;27.70;99.90;;;;;;4981409;28;20031;-83
2023/09/09 10:05:26;;;;;;;13.68;5.05;;;27.70;99.90;;;;;;4973101;28;20521;-83
2023/09/09 10:08:03;;;;;;;8.98;4.68;;;27.70;99.90;;;;;;4995661;28;20527;-83
2023/09/09 10:10:31;;;;;;;10.70;4.57;;;27.70;99.90;;;;;;5010131;28;20029;-83
2023/09/09 10:13:22;;;;;;;8.90;4.68;;;27.70;99.90;;;;;;5009303;28;20022;-83
2023/09/09 10:15:49;;;;;;;15.70;4.80;;;27.70;99.90;;;;;;5008998;28;20026;-83
2023/09/09 10:18:16;;;;;;;7.70;4.60;;;27.80;99.90;;;;;;5009133;28;20045;-83
2023/09/09 10:20:42;;;;;;;7.25;4.43;;;27.70;99.90;;;;;;4995875;28;20396;-84
2023/09/09 10:23:08;;;;;;;13.90;4.63;;;27.80;99.90;;;;;;4988457;28;20031;-84
2023/09/09 10:25:34;;;;;;;12.10;5.00;;;28.00;99.90;;;;;;4990176;28;20113;-84
2023/09/09 10:28:01;;;;;;;18.35;4.68;;;28.20;99.90;;;;;;4990257;28;20018;-83
2023/09/09 10:30:27;;;;;;;;;;;28.30;99.90;;;;;;4989596;28;20109;-84
2023/09/09 10:32:55;;;;;;;12.80;4.60;;;28.40;99.90;;;;;;4987971;28;20012;-85
2023/09/09 10:35:22;;;;;;;11.95;4.72;;;28.50;99.90;;;;;;4990033;28;20557;-83
2023/09/09 10:37:50;;;;;;;8.53;4.73;;;28.50;99.90;;;;;;4989359;28;20026;-85
2023/09/09 10:40:17;;;;;;;13.27;4.40;;;28.60;99.90;;;;;;4985853;28;20026;-85
2023/09/09 10:42:44;;;;;;;17.00;4.90;;;28.70;99.90;;;;;;4988573;28;20077;-85
2023/09/09 10:45:24;;;;;;;8.07;4.45;;;28.80;99.90;;;;;;4989308;28;20027;-85
2023/09/09 10:48:00;;;;;;;18.55;4.50;;;28.80;99.90;;;;;;4989193;28;20026;-86
2023/09/09 10:50:44;;;;;;;12.63;4.53;;;28.90;99.90;;;;;;4989268;28;20236;-85
2023/09/09 10:53:27;;;;;;;15.15;4.50;;;29.00;99.90;;;;;;4989285;28;20019;-84
2023/09/09 10:55:56;;;;;;;14.25;4.60;;;29.00;99.90;;;;;;4974928;28;20039;-85
2023/09/09 10:58:35;;;;;;;14.70;4.60;;;29.00;99.90;;;;;;4989367;28;20044;-85
2023/09/09 11:01:02;;;;;;;12.63;4.47;;;28.80;99.90;;;;;;4993327;28;20030;-84
2023/09/09 11:03:34;;;;;;;13.55;4.35;;;28.90;99.90;;;;;;4992635;28;20030;-84
2023/09/09 11:06:02;;;;;;;11.77;4.13;;;28.90;99.90;;;;;;4974960;28;20093;-83
2023/09/09 11:08:47;;;;;;;10.23;4.38;;;28.90;99.90;;;;;;4973350;28;20446;-86
2023/09/09 11:11:18;;;;;;;6.35;3.78;;;29.10;99.90;;;;;;4996211;28;20040;-82
2023/09/09 11:13:53;;;;;;;8.27;3.92;;;29.20;99.90;;;;;;5000652;28;20491;-82
2023/09/09 11:16:24;;;;;;;12.02;4.00;;;29.20;99.90;;;;;;4998155;28;20596;-82
2023/09/09 11:18:52;;;;;;;10.63;4.20;;;29.20;99.90;;;;;;5010733;28;20022;-82
2023/09/09 11:21:20;;;;;;;14.65;3.95;;;29.30;99.90;;;;;;5011567;28;20030;-82
2023/09/09 11:23:47;;;;;;;8.68;4.35;;;29.30;99.90;;;;;;5011902;28;20026;-83
2023/09/09 11:26:15;;;;;;;8.23;4.03;;;29.40;99.90;;;;;;5002156;28;20102;-83
2023/09/09 11:28:41;;;;;;;7.20;3.75;;;29.30;99.90;;;;;;4990850;28;20382;-83
2023/09/09 11:31:17;;;;;;;10.98;3.67;;;29.30;99.90;;;;;;4992894;28;20037;-82
2023/09/09 11:33:43;;;;;;;8.15;3.67;;;29.30;99.90;;;;;;4991934;28;20031;-83
2023/09/09 11:36:09;;;;;;;11.98;4.03;;;29.30;99.90;;;;;;4991833;28;20053;-82
2023/09/09 11:38:35;;;;;;;14.27;3.70;;;29.30;99.90;;;;;;4986585;28;20058;-83
2023/09/09 11:41:01;;;;;;;8.10;4.03;;;29.40;99.90;;;;;;4972510;28;20026;-83
2023/09/09 11:43:27;;;;;;;15.70;4.15;;;29.40;99.90;;;;;;4975813;28;20042;-84
2023/09/09 11:45:54;;;;;;;7.43;4.18;;;29.50;99.90;;;;;;4991088;28;20441;-82
2023/09/09 11:48:21;;;;;;;13.65;3.88;;;29.40;99.90;;;;;;4990028;28;20475;-83
2023/09/09 11:50:48;;;;;;;7.55;3.83;;;29.40;99.90;;;;;;5004424;28;20124;-83
2023/09/09 11:53:14;;;;;;;9.47;3.80;;;29.50;99.90;;;;;;5011164;28;20034;-85
2023/09/09 11:55:39;;;;;;;7.88;3.60;;;29.50;99.90;;;;;;5010639;28;20345;-84
2023/09/09 11:58:05;;;;;;;5.65;3.45;;;29.60;99.90;;;;;;5011810;28;20030;-83
2023/09/09 12:00:32;;;;;;;9.75;3.53;;;29.60;99.90;;;;;;5009581;28;20037;-84
2023/09/09 12:02:58;;;;;;;9.38;3.40;;;29.50;99.90;;;;;;4994258;28;20018;-84
2023/09/09 12:05:31;;;;;;;5.10;3.50;;;29.50;99.90;;;;;;4990404;28;20065;-84
2023/09/09 12:08:01;;;;;;;8.65;3.80;;;29.50;99.90;;;;;;4990956;28;20026;-83
2023/09/09 12:10:36;;;;;;;8.07;3.67;;;29.50;99.90;;;;;;4991216;28;20129;-84
2023/09/09 12:13:02;;;;;;;10.70;4.03;;;29.50;99.90;;;;;;4990674;28;20133;-85
2023/09/09 12:15:28;;;;;;;11.05;3.40;;;29.50;99.90;;;;;;4984194;28;20534;-85
2023/09/09 12:17:54;;;;;;;8.20;3.63;;;29.60;99.90;;;;;;4971354;28;20109;-85
2023/09/09 12:20:19;;;;;;;7.15;3.63;;;29.20;99.90;;;;;;4979488;28;20457;-85
2023/09/09 12:22:52;;;;;;;11.40;3.63;;;29.20;99.90;;;;;;4989217;28;20018;-84
2023/09/09 12:25:31;;;;;;;8.20;3.22;;;29.40;99.90;;;;;;4972164;28;20093;-85
2023/09/09 12:27:57;;;;;;;7.55;3.42;;;29.50;99.90;;;;;;4990588;28;20031;-85
2023/09/09 12:30:31;;;;;;;11.13;3.28;;;29.50;99.90;;;;;;4990695;28;20402;-84
2023/09/09 12:33:07;;;;;;;10.95;3.53;;;29.60;99.90;;;;;;4989106;28;20033;-85
2023/09/09 12:35:37;;;;;;;8.05;3.33;;;29.40;99.90;;;;;;4985060;28;20048;-85
2023/09/09 12:38:04;;;;;;;10.60;3.60;;;29.40;99.90;;;;;;4990035;28;20182;-83
2023/09/09 12:40:45;;;;;;;11.67;3.10;;;29.50;99.90;;;;;;4990250;28;20030;-83